sensor_id;sensor_type;location;lat;lon;timestamp;P1;durP1;ratioP1;P2;durP2;ratioP2
21334;SDS011;69435;52.670;13.544;2023-06-14T00:01:52;2.50;;;2.30;;
21334;SDS011;69435;52.670;13.544;2023-06-14T00:04:18;3.00;;;2.20;;
21334;SDS011;69435;52.670;13.544;2023-06-14T00:06:47;4.20;;;2.23;;
21334;SDS011;69435;52.670;13.544;2023-06-14T00:09:15;2.70;;;2.07;;
21334;SDS011;69435;52.670;13.544;2023-06-14T00:11:42;1.80;;;1.70;;
21334;SDS011;69435;52.670;13.544;2023-06-14T00:14:09;2.30;;;2.20;;
21334;SDS011;69435;52.670;13.544;2023-06-14T00:16:35;2.70;;;2.20;;
21334;SDS011;69435;52.670;13.544;2023-06-14T00:19:02;2.10;;;2.00;;
21334;SDS011;69435;52.670;13.544;2023-06-14T00:21:32;3.13;;;2.33;;
21334;SDS011;69435;52.670;13.544;2023-06-14T00:23:58;2.33;;;2.00;;
21334;SDS011;69435;52.670;13.544;2023-06-14T00:26:24;2.67;;;2.47;;
21334;SDS011;69435;52.670;13.544;2023-06-14T00:28:52;4.40;;;2.90;;
21334;SDS011;69435;52.670;13.544;2023-06-14T00:31:24;2.50;;;2.30;;
21334;SDS011;69435;52.670;13.544;2023-06-14T00:33:50;2.37;;;2.20;;
21334;SDS011;69435;52.670;13.544;2023-06-14T00:36:16;5.60;;;2.43;;
21334;SDS011;69435;52.670;13.544;2023-06-14T00:38:42;3.13;;;2.37;;
21334;SDS011;69435;52.670;13.544;2023-06-14T00:41:08;4.63;;;2.60;;
21334;SDS011;69435;52.670;13.544;2023-06-14T00:43:33;6.27;;;2.53;;
21334;SDS011;69435;52.670;13.544;2023-06-14T00:46:00;3.00;;;2.70;;
21334;SDS011;69435;52.670;13.544;2023-06-14T00:48:26;3.23;;;2.80;;
21334;SDS011;69435;52.670;13.544;2023-06-14T00:50:53;4.70;;;2.47;;
21334;SDS011;69435;52.670;13.544;2023-06-14T00:53:20;3.13;;;2.83;;
21334;SDS011;69435;52.670;13.544;2023-06-14T00:55:48;3.60;;;2.50;;
21334;SDS011;69435;52.670;13.544;2023-06-14T00:58:14;3.57;;;3.10;;
21334;SDS011;69435;52.670;13.544;2023-06-14T01:00:41;3.87;;;2.97;;
21334;SDS011;69435;52.670;13.544;2023-06-14T01:03:07;2.80;;;2.60;;
21334;SDS011;69435;52.670;13.544;2023-06-14T01:05:37;4.43;;;2.73;;
21334;SDS011;69435;52.670;13.544;2023-06-14T01:11:02;3.17;;;2.97;;
21334;SDS011;69435;52.670;13.544;2023-06-14T01:13:35;2.70;;;2.50;;
21334;SDS011;69435;52.670;13.544;2023-06-14T01:16:05;2.77;;;2.57;;
21334;SDS011;69435;52.670;13.544;2023-06-14T01:18:33;3.03;;;2.80;;
21334;SDS011;69435;52.670;13.544;2023-06-14T01:21:00;3.77;;;3.00;;
21334;SDS011;69435;52.670;13.544;2023-06-14T01:23:31;3.47;;;3.00;;
21334;SDS011;69435;52.670;13.544;2023-06-14T01:25:58;3.27;;;2.60;;
21334;SDS011;69435;52.670;13.544;2023-06-14T01:28:28;3.00;;;2.80;;
21334;SDS011;69435;52.670;13.544;2023-06-14T01:31:00;4.97;;;3.17;;
21334;SDS011;69435;52.670;13.544;2023-06-14T01:33:29;3.20;;;3.00;;
21334;SDS011;69435;52.670;13.544;2023-06-14T01:35:58;3.10;;;2.90;;
21334;SDS011;69435;52.670;13.544;2023-06-14T01:38:27;5.77;;;3.40;;
21334;SDS011;69435;52.670;13.544;2023-06-14T01:40:54;3.20;;;3.00;;
21334;SDS011;69435;52.670;13.544;2023-06-14T01:43:23;3.30;;;3.10;;
21334;SDS011;69435;52.670;13.544;2023-06-14T01:45:52;3.30;;;2.80;;
21334;SDS011;69435;52.670;13.544;2023-06-14T01:48:20;6.43;;;3.13;;
21334;SDS011;69435;52.670;13.544;2023-06-14T01:50:48;4.30;;;3.27;;
21334;SDS011;69435;52.670;13.544;2023-06-14T01:53:15;3.77;;;3.50;;
21334;SDS011;69435;52.670;13.544;2023-06-14T01:55:41;5.37;;;3.50;;
21334;SDS011;69435;52.670;13.544;2023-06-14T01:58:11;4.47;;;3.63;;
21334;SDS011;69435;52.670;13.544;2023-06-14T02:00:38;5.60;;;3.57;;
21334;SDS011;69435;52.670;13.544;2023-06-14T02:03:04;3.90;;;3.60;;
21334;SDS011;69435;52.670;13.544;2023-06-14T02:05:30;3.93;;;3.43;;
21334;SDS011;69435;52.670;13.544;2023-06-14T02:07:55;4.70;;;3.63;;
21334;SDS011;69435;52.670;13.544;2023-06-14T02:10:22;3.53;;;3.33;;
21334;SDS011;69435;52.670;13.544;2023-06-14T02:12:47;3.97;;;3.67;;
21334;SDS011;69435;52.670;13.544;2023-06-14T02:15:13;4.17;;;3.77;;
21334;SDS011;69435;52.670;13.544;2023-06-14T02:17:48;3.90;;;3.60;;
21334;SDS011;69435;52.670;13.544;2023-06-14T02:20:17;4.57;;;4.17;;
21334;SDS011;69435;52.670;13.544;2023-06-14T02:22:43;5.10;;;4.13;;
21334;SDS011;69435;52.670;13.544;2023-06-14T02:25:10;4.00;;;3.70;;
21334;SDS011;69435;52.670;13.544;2023-06-14T02:27:36;4.47;;;4.07;;
21334;SDS011;69435;52.670;13.544;2023-06-14T02:30:02;4.23;;;3.93;;
21334;SDS011;69435;52.670;13.544;2023-06-14T02:32:29;4.37;;;4.07;;
21334;SDS011;69435;52.670;13.544;2023-06-14T02:34:54;4.10;;;3.80;;
21334;SDS011;69435;52.670;13.544;2023-06-14T02:37:20;6.80;;;3.93;;
21334;SDS011;69435;52.670;13.544;2023-06-14T02:39:46;5.20;;;4.07;;
21334;SDS011;69435;52.670;13.544;2023-06-14T02:42:13;5.37;;;4.87;;
21334;SDS011;69435;52.670;13.544;2023-06-14T02:44:39;4.87;;;4.47;;
21334;SDS011;69435;52.670;13.544;2023-06-14T02:47:05;4.70;;;4.37;;
21334;SDS011;69435;52.670;13.544;2023-06-14T02:49:31;6.20;;;4.13;;
21334;SDS011;69435;52.670;13.544;2023-06-14T02:51:56;4.80;;;4.00;;
21334;SDS011;69435;52.670;13.544;2023-06-14T02:54:22;4.83;;;4.50;;
21334;SDS011;69435;52.670;13.544;2023-06-14T02:56:48;5.97;;;4.40;;
21334;SDS011;69435;52.670;13.544;2023-06-14T02:59:14;5.50;;;4.57;;
21334;SDS011;69435;52.670;13.544;2023-06-14T03:01:40;4.57;;;4.20;;
21334;SDS011;69435;52.670;13.544;2023-06-14T03:04:08;4.30;;;4.00;;
21334;SDS011;69435;52.670;13.544;2023-06-14T03:06:34;5.70;;;4.30;;
21334;SDS011;69435;52.670;13.544;2023-06-14T03:09:02;6.33;;;4.17;;
21334;SDS011;69435;52.670;13.544;2023-06-14T03:11:31;5.17;;;4.70;;
21334;SDS011;69435;52.670;13.544;2023-06-14T03:13:57;10.70;;;4.30;;
21334;SDS011;69435;52.670;13.544;2023-06-14T03:16:24;4.53;;;3.93;;
21334;SDS011;69435;52.670;13.544;2023-06-14T03:18:51;4.43;;;4.10;;
21334;SDS011;69435;52.670;13.544;2023-06-14T03:21:17;4.70;;;4.30;;
21334;SDS011;69435;52.670;13.544;2023-06-14T03:23:46;5.00;;;4.17;;
21334;SDS011;69435;52.670;13.544;2023-06-14T03:26:12;4.67;;;4.27;;
21334;SDS011;69435;52.670;13.544;2023-06-14T03:28:39;5.60;;;4.53;;
21334;SDS011;69435;52.670;13.544;2023-06-14T03:31:08;5.57;;;4.37;;
21334;SDS011;69435;52.670;13.544;2023-06-14T03:33:34;4.70;;;4.23;;
21334;SDS011;69435;52.670;13.544;2023-06-14T03:36:01;5.20;;;4.80;;
21334;SDS011;69435;52.670;13.544;2023-06-14T03:38:27;5.53;;;4.47;;
21334;SDS011;69435;52.670;13.544;2023-06-14T03:40:53;7.67;;;4.63;;
21334;SDS011;69435;52.670;13.544;2023-06-14T03:43:19;4.67;;;4.27;;
21334;SDS011;69435;52.670;13.544;2023-06-14T03:45:45;8.90;;;4.43;;
21334;SDS011;69435;52.670;13.544;2023-06-14T03:48:11;8.20;;;4.97;;
21334;SDS011;69435;52.670;13.544;2023-06-14T03:50:37;5.13;;;4.63;;
21334;SDS011;69435;52.670;13.544;2023-06-14T03:53:03;6.53;;;4.80;;
21334;SDS011;69435;52.670;13.544;2023-06-14T03:55:30;5.13;;;4.40;;
21334;SDS011;69435;52.670;13.544;2023-06-14T03:57:58;7.93;;;4.93;;
21334;SDS011;69435;52.670;13.544;2023-06-14T04:00:24;8.07;;;5.37;;
21334;SDS011;69435;52.670;13.544;2023-06-14T04:02:51;6.87;;;4.90;;
21334;SDS011;69435;52.670;13.544;2023-06-14T04:05:19;9.63;;;5.30;;
21334;SDS011;69435;52.670;13.544;2023-06-14T04:07:45;7.60;;;5.37;;
21334;SDS011;69435;52.670;13.544;2023-06-14T04:10:14;6.87;;;5.13;;
21334;SDS011;69435;52.670;13.544;2023-06-14T04:12:41;5.17;;;4.67;;
21334;SDS011;69435;52.670;13.544;2023-06-14T04:15:08;6.50;;;4.47;;
21334;SDS011;69435;52.670;13.544;2023-06-14T04:17:35;7.43;;;5.17;;
21334;SDS011;69435;52.670;13.544;2023-06-14T04:20:05;8.07;;;5.53;;
21334;SDS011;69435;52.670;13.544;2023-06-14T04:22:37;5.10;;;4.70;;
21334;SDS011;69435;52.670;13.544;2023-06-14T04:25:07;6.13;;;4.60;;
21334;SDS011;69435;52.670;13.544;2023-06-14T04:27:37;6.70;;;4.47;;
21334;SDS011;69435;52.670;13.544;2023-06-14T04:30:03;5.53;;;4.53;;
21334;SDS011;69435;52.670;13.544;2023-06-14T04:32:30;5.80;;;4.60;;
21334;SDS011;69435;52.670;13.544;2023-06-14T04:35:05;7.20;;;4.87;;
21334;SDS011;69435;52.670;13.544;2023-06-14T04:37:34;5.40;;;4.90;;
21334;SDS011;69435;52.670;13.544;2023-06-14T04:40:05;6.47;;;4.60;;
21334;SDS011;69435;52.670;13.544;2023-06-14T04:42:32;7.57;;;5.03;;
21334;SDS011;69435;52.670;13.544;2023-06-14T04:45:02;6.27;;;4.50;;
21334;SDS011;69435;52.670;13.544;2023-06-14T04:47:30;6.03;;;4.73;;
21334;SDS011;69435;52.670;13.544;2023-06-14T04:49:56;7.40;;;3.90;;
21334;SDS011;69435;52.670;13.544;2023-06-14T04:52:23;5.83;;;4.80;;
21334;SDS011;69435;52.670;13.544;2023-06-14T04:54:51;7.93;;;4.70;;
21334;SDS011;69435;52.670;13.544;2023-06-14T04:57:19;5.70;;;5.10;;
21334;SDS011;69435;52.670;13.544;2023-06-14T04:59:56;5.57;;;4.80;;
21334;SDS011;69435;52.670;13.544;2023-06-14T05:02:35;4.83;;;4.43;;
21334;SDS011;69435;52.670;13.544;2023-06-14T05:05:05;7.83;;;5.13;;
21334;SDS011;69435;52.670;13.544;2023-06-14T05:07:33;5.33;;;4.47;;
21334;SDS011;69435;52.670;13.544;2023-06-14T05:10:02;7.00;;;4.73;;
21334;SDS011;69435;52.670;13.544;2023-06-14T05:12:29;6.70;;;4.60;;
21334;SDS011;69435;52.670;13.544;2023-06-14T05:14:54;5.60;;;4.17;;
21334;SDS011;69435;52.670;13.544;2023-06-14T05:17:27;6.30;;;4.40;;
21334;SDS011;69435;52.670;13.544;2023-06-14T05:19:53;6.97;;;4.63;;
21334;SDS011;69435;52.670;13.544;2023-06-14T05:22:21;4.60;;;4.20;;
21334;SDS011;69435;52.670;13.544;2023-06-14T05:24:47;6.33;;;5.00;;
21334;SDS011;69435;52.670;13.544;2023-06-14T05:27:13;11.37;;;4.87;;
21334;SDS011;69435;52.670;13.544;2023-06-14T05:29:39;12.53;;;5.20;;
21334;SDS011;69435;52.670;13.544;2023-06-14T05:32:05;9.03;;;5.03;;
21334;SDS011;69435;52.670;13.544;2023-06-14T05:34:31;8.83;;;4.50;;
21334;SDS011;69435;52.670;13.544;2023-06-14T05:36:57;9.27;;;5.00;;
21334;SDS011;69435;52.670;13.544;2023-06-14T05:39:23;4.97;;;4.27;;
21334;SDS011;69435;52.670;13.544;2023-06-14T05:41:49;6.77;;;4.50;;
21334;SDS011;69435;52.670;13.544;2023-06-14T05:44:15;4.93;;;4.37;;
21334;SDS011;69435;52.670;13.544;2023-06-14T05:46:41;6.83;;;4.50;;
21334;SDS011;69435;52.670;13.544;2023-06-14T05:49:07;6.60;;;4.53;;
21334;SDS011;69435;52.670;13.544;2023-06-14T05:51:33;5.30;;;4.20;;
21334;SDS011;69435;52.670;13.544;2023-06-14T05:56:40;6.20;;;4.70;;
21334;SDS011;69435;52.670;13.544;2023-06-14T05:59:05;6.83;;;4.57;;
21334;SDS011;69435;52.670;13.544;2023-06-14T06:01:44;4.60;;;4.20;;
21334;SDS011;69435;52.670;13.544;2023-06-14T06:04:09;4.87;;;4.37;;
21334;SDS011;69435;52.670;13.544;2023-06-14T06:06:35;5.60;;;4.10;;
21334;SDS011;69435;52.670;13.544;2023-06-14T06:09:01;4.30;;;3.93;;
21334;SDS011;69435;52.670;13.544;2023-06-14T06:11:33;5.50;;;4.43;;
21334;SDS011;69435;52.670;13.544;2023-06-14T06:13:58;5.07;;;4.30;;
21334;SDS011;69435;52.670;13.544;2023-06-14T06:16:33;6.47;;;4.67;;
21334;SDS011;69435;52.670;13.544;2023-06-14T06:19:00;9.63;;;5.60;;
21334;SDS011;69435;52.670;13.544;2023-06-14T06:21:44;6.70;;;4.13;;
21334;SDS011;69435;52.670;13.544;2023-06-14T06:24:28;7.87;;;4.40;;
21334;SDS011;69435;52.670;13.544;2023-06-14T06:27:13;5.27;;;4.77;;
21334;SDS011;69435;52.670;13.544;2023-06-14T06:29:49;5.33;;;4.43;;
21334;SDS011;69435;52.670;13.544;2023-06-14T06:32:17;4.90;;;4.33;;
21334;SDS011;69435;52.670;13.544;2023-06-14T06:35:02;5.37;;;4.10;;
21334;SDS011;69435;52.670;13.544;2023-06-14T06:37:41;6.77;;;5.10;;
21334;SDS011;69435;52.670;13.544;2023-06-14T06:40:08;4.93;;;4.47;;
21334;SDS011;69435;52.670;13.544;2023-06-14T06:42:40;9.57;;;4.27;;
21334;SDS011;69435;52.670;13.544;2023-06-14T06:45:21;11.20;;;4.40;;
21334;SDS011;69435;52.670;13.544;2023-06-14T06:47:48;5.73;;;4.27;;
21334;SDS011;69435;52.670;13.544;2023-06-14T06:50:21;4.80;;;4.27;;
21334;SDS011;69435;52.670;13.544;2023-06-14T06:52:50;4.83;;;4.20;;
21334;SDS011;69435;52.670;13.544;2023-06-14T06:55:34;4.70;;;4.30;;
21334;SDS011;69435;52.670;13.544;2023-06-14T06:58:00;6.23;;;4.30;;
21334;SDS011;69435;52.670;13.544;2023-06-14T07:00:26;10.97;;;4.60;;
21334;SDS011;69435;52.670;13.544;2023-06-14T07:03:10;8.53;;;4.90;;
21334;SDS011;69435;52.670;13.544;2023-06-14T07:05:42;6.17;;;5.10;;
21334;SDS011;69435;52.670;13.544;2023-06-14T07:08:08;6.67;;;4.50;;
21334;SDS011;69435;52.670;13.544;2023-06-14T07:10:34;8.20;;;5.23;;
21334;SDS011;69435;52.670;13.544;2023-06-14T07:13:00;5.13;;;4.57;;
21334;SDS011;69435;52.670;13.544;2023-06-14T07:15:25;9.20;;;4.50;;
21334;SDS011;69435;52.670;13.544;2023-06-14T07:17:51;4.53;;;4.23;;
21334;SDS011;69435;52.670;13.544;2023-06-14T07:20:18;6.70;;;5.07;;
21334;SDS011;69435;52.670;13.544;2023-06-14T07:22:43;5.80;;;4.20;;
21334;SDS011;69435;52.670;13.544;2023-06-14T07:25:10;7.73;;;4.63;;
21334;SDS011;69435;52.670;13.544;2023-06-14T07:27:42;7.40;;;5.00;;
21334;SDS011;69435;52.670;13.544;2023-06-14T07:30:17;6.20;;;5.47;;
21334;SDS011;69435;52.670;13.544;2023-06-14T07:33:01;7.47;;;4.63;;
21334;SDS011;69435;52.670;13.544;2023-06-14T07:35:27;6.20;;;4.67;;
21334;SDS011;69435;52.670;13.544;2023-06-14T07:38:11;4.43;;;4.13;;
21334;SDS011;69435;52.670;13.544;2023-06-14T07:40:37;6.97;;;4.40;;
21334;SDS011;69435;52.670;13.544;2023-06-14T07:43:03;5.93;;;4.27;;
21334;SDS011;69435;52.670;13.544;2023-06-14T07:45:44;8.50;;;4.70;;
21334;SDS011;69435;52.670;13.544;2023-06-14T07:48:29;9.03;;;4.40;;
21334;SDS011;69435;52.670;13.544;2023-06-14T07:50:55;5.03;;;4.50;;
21334;SDS011;69435;52.670;13.544;2023-06-14T07:53:21;6.50;;;4.10;;
21334;SDS011;69435;52.670;13.544;2023-06-14T07:55:49;4.57;;;3.77;;
21334;SDS011;69435;52.670;13.544;2023-06-14T07:58:21;5.90;;;3.63;;
21334;SDS011;69435;52.670;13.544;2023-06-14T08:00:53;5.00;;;4.40;;
21334;SDS011;69435;52.670;13.544;2023-06-14T08:03:19;4.60;;;4.30;;
21334;SDS011;69435;52.670;13.544;2023-06-14T08:05:44;6.97;;;3.90;;
21334;SDS011;69435;52.670;13.544;2023-06-14T08:08:22;5.78;;;3.97;;
21334;SDS011;69435;52.670;13.544;2023-06-14T08:10:48;4.57;;;3.40;;
21334;SDS011;69435;52.670;13.544;2023-06-14T08:13:26;4.90;;;3.55;;
21334;SDS011;69435;52.670;13.544;2023-06-14T08:15:52;3.80;;;3.60;;
21334;SDS011;69435;52.670;13.544;2023-06-14T08:18:17;5.53;;;3.33;;
21334;SDS011;69435;52.670;13.544;2023-06-14T08:20:43;8.48;;;3.45;;
21334;SDS011;69435;52.670;13.544;2023-06-14T08:23:28;4.50;;;4.13;;
21334;SDS011;69435;52.670;13.544;2023-06-14T08:25:53;5.22;;;3.30;;
21334;SDS011;69435;52.670;13.544;2023-06-14T08:28:38;3.90;;;3.58;;
21334;SDS011;69435;52.670;13.544;2023-06-14T08:31:04;4.75;;;4.10;;
21334;SDS011;69435;52.670;13.544;2023-06-14T08:33:39;5.80;;;3.58;;
21334;SDS011;69435;52.670;13.544;2023-06-14T08:36:08;3.83;;;3.42;;
21334;SDS011;69435;52.670;13.544;2023-06-14T08:38:35;3.80;;;3.28;;
21334;SDS011;69435;52.670;13.544;2023-06-14T08:41:02;7.63;;;3.03;;
21334;SDS011;69435;52.670;13.544;2023-06-14T08:43:33;5.03;;;3.35;;
21334;SDS011;69435;52.670;13.544;2023-06-14T08:46:03;4.93;;;3.78;;
21334;SDS011;69435;52.670;13.544;2023-06-14T08:48:31;3.92;;;3.63;;
21334;SDS011;69435;52.670;13.544;2023-06-14T08:51:01;8.68;;;3.72;;
21334;SDS011;69435;52.670;13.544;2023-06-14T08:53:32;4.47;;;3.50;;
21334;SDS011;69435;52.670;13.544;2023-06-14T08:55:59;4.55;;;3.40;;
21334;SDS011;69435;52.670;13.544;2023-06-14T08:58:30;3.80;;;3.50;;
21334;SDS011;69435;52.670;13.544;2023-06-14T09:00:58;9.50;;;3.88;;
21334;SDS011;69435;52.670;13.544;2023-06-14T09:03:27;3.70;;;3.40;;
21334;SDS011;69435;52.670;13.544;2023-06-14T09:05:58;3.90;;;3.28;;
21334;SDS011;69435;52.670;13.544;2023-06-14T09:08:24;5.53;;;3.45;;
21334;SDS011;69435;52.670;13.544;2023-06-14T09:11:01;4.20;;;3.70;;
21334;SDS011;69435;52.670;13.544;2023-06-14T09:13:30;5.78;;;3.47;;
21334;SDS011;69435;52.670;13.544;2023-06-14T09:15:59;6.38;;;3.70;;
21334;SDS011;69435;52.670;13.544;2023-06-14T09:18:38;5.97;;;3.92;;
21334;SDS011;69435;52.670;13.544;2023-06-14T09:21:24;4.72;;;3.30;;
21334;SDS011;69435;52.670;13.544;2023-06-14T09:23:50;4.78;;;3.65;;
21334;SDS011;69435;52.670;13.544;2023-06-14T09:26:35;6.03;;;3.45;;
21334;SDS011;69435;52.670;13.544;2023-06-14T09:29:09;4.75;;;3.63;;
21334;SDS011;69435;52.670;13.544;2023-06-14T09:31:53;4.28;;;3.58;;
21334;SDS011;69435;52.670;13.544;2023-06-14T09:34:20;5.05;;;3.78;;
21334;SDS011;69435;52.670;13.544;2023-06-14T09:36:48;5.10;;;3.88;;
21334;SDS011;69435;52.670;13.544;2023-06-14T09:39:16;4.05;;;3.72;;
21334;SDS011;69435;52.670;13.544;2023-06-14T09:41:49;5.25;;;3.60;;
21334;SDS011;69435;52.670;13.544;2023-06-14T09:44:20;5.80;;;3.75;;
21334;SDS011;69435;52.670;13.544;2023-06-14T09:46:50;5.22;;;3.70;;
21334;SDS011;69435;52.670;13.544;2023-06-14T09:49:22;9.20;;;3.58;;
21334;SDS011;69435;52.670;13.544;2023-06-14T09:51:51;6.35;;;4.22;;
21334;SDS011;69435;52.670;13.544;2023-06-14T09:54:23;4.22;;;3.83;;
21334;SDS011;69435;52.670;13.544;2023-06-14T09:56:53;4.65;;;4.05;;
21334;SDS011;69435;52.670;13.544;2023-06-14T09:59:21;9.32;;;4.53;;
21334;SDS011;69435;52.670;13.544;2023-06-14T10:01:57;4.90;;;3.92;;
21334;SDS011;69435;52.670;13.544;2023-06-14T10:04:50;4.65;;;4.20;;
21334;SDS011;69435;52.670;13.544;2023-06-14T10:10:13;4.80;;;3.53;;
21334;SDS011;69435;52.670;13.544;2023-06-14T10:12:48;6.45;;;3.90;;
21334;SDS011;69435;52.670;13.544;2023-06-14T10:15:17;5.88;;;3.70;;
21334;SDS011;69435;52.670;13.544;2023-06-14T10:18:00;5.88;;;3.85;;
21334;SDS011;69435;52.670;13.544;2023-06-14T10:21:31;4.95;;;3.75;;
21334;SDS011;69435;52.670;13.544;2023-06-14T10:24:17;5.55;;;3.95;;
21334;SDS011;69435;52.670;13.544;2023-06-14T10:26:51;6.25;;;4.30;;
21334;SDS011;69435;52.670;13.544;2023-06-14T10:29:20;4.07;;;3.67;;
21334;SDS011;69435;52.670;13.544;2023-06-14T10:31:56;5.50;;;3.92;;
21334;SDS011;69435;52.670;13.544;2023-06-14T10:34:29;8.73;;;3.67;;
21334;SDS011;69435;52.670;13.544;2023-06-14T10:37:12;4.38;;;3.58;;
21334;SDS011;69435;52.670;13.544;2023-06-14T10:39:57;6.18;;;3.50;;
21334;SDS011;69435;52.670;13.544;2023-06-14T10:42:27;5.13;;;3.63;;
21334;SDS011;69435;52.670;13.544;2023-06-14T10:45:15;5.45;;;3.58;;
21334;SDS011;69435;52.670;13.544;2023-06-14T10:47:41;3.92;;;3.47;;
21334;SDS011;69435;52.670;13.544;2023-06-14T10:50:13;5.60;;;3.55;;
21334;SDS011;69435;52.670;13.544;2023-06-14T10:52:42;5.25;;;3.45;;
21334;SDS011;69435;52.670;13.544;2023-06-14T10:55:15;8.88;;;3.58;;
21334;SDS011;69435;52.670;13.544;2023-06-14T10:57:53;8.48;;;3.47;;
21334;SDS011;69435;52.670;13.544;2023-06-14T11:00:29;6.85;;;3.15;;
21334;SDS011;69435;52.670;13.544;2023-06-14T11:06:30;3.53;;;3.22;;
21334;SDS011;69435;52.670;13.544;2023-06-14T11:09:20;8.48;;;4.03;;
21334;SDS011;69435;52.670;13.544;2023-06-14T11:12:15;5.72;;;3.25;;
21334;SDS011;69435;52.670;13.544;2023-06-14T11:15:01;7.15;;;3.88;;
21334;SDS011;69435;52.670;13.544;2023-06-14T11:17:50;3.72;;;3.42;;
21334;SDS011;69435;52.670;13.544;2023-06-14T11:20:18;6.35;;;3.63;;
21334;SDS011;69435;52.670;13.544;2023-06-14T11:22:45;5.28;;;3.50;;
21334;SDS011;69435;52.670;13.544;2023-06-14T11:25:11;3.85;;;3.55;;
21334;SDS011;69435;52.670;13.544;2023-06-14T11:27:56;6.68;;;3.40;;
21334;SDS011;69435;52.670;13.544;2023-06-14T11:30:41;12.32;;;3.97;;
21334;SDS011;69435;52.670;13.544;2023-06-14T11:33:09;12.35;;;3.72;;
21334;SDS011;69435;52.670;13.544;2023-06-14T11:35:42;4.97;;;3.20;;
21334;SDS011;69435;52.670;13.544;2023-06-14T11:38:09;5.90;;;3.38;;
21334;SDS011;69435;52.670;13.544;2023-06-14T11:40:38;5.82;;;3.38;;
21334;SDS011;69435;52.670;13.544;2023-06-14T11:43:04;5.97;;;3.35;;
21334;SDS011;69435;52.670;13.544;2023-06-14T11:45:33;3.75;;;3.45;;
21334;SDS011;69435;52.670;13.544;2023-06-14T11:48:17;3.80;;;3.40;;
21334;SDS011;69435;52.670;13.544;2023-06-14T11:50:43;4.15;;;3.28;;
21334;SDS011;69435;52.670;13.544;2023-06-14T11:53:09;3.92;;;3.50;;
21334;SDS011;69435;52.670;13.544;2023-06-14T11:55:53;4.03;;;3.67;;
21334;SDS011;69435;52.670;13.544;2023-06-14T11:58:19;7.90;;;3.55;;
21334;SDS011;69435;52.670;13.544;2023-06-14T12:00:54;4.25;;;3.13;;
21334;SDS011;69435;52.670;13.544;2023-06-14T12:03:23;5.20;;;3.40;;
21334;SDS011;69435;52.670;13.544;2023-06-14T12:06:05;3.55;;;3.05;;
21334;SDS011;69435;52.670;13.544;2023-06-14T12:08:36;5.20;;;3.35;;
21334;SDS011;69435;52.670;13.544;2023-06-14T12:11:13;6.47;;;3.80;;
21334;SDS011;69435;52.670;13.544;2023-06-14T12:13:49;5.65;;;3.33;;
21334;SDS011;69435;52.670;13.544;2023-06-14T12:16:15;4.57;;;3.08;;
21334;SDS011;69435;52.670;13.544;2023-06-14T12:18:52;5.78;;;3.88;;
21334;SDS011;69435;52.670;13.544;2023-06-14T12:21:22;5.28;;;3.67;;
21334;SDS011;69435;52.670;13.544;2023-06-14T12:23:49;4.53;;;3.33;;
21334;SDS011;69435;52.670;13.544;2023-06-14T12:26:19;4.80;;;3.20;;
21334;SDS011;69435;52.670;13.544;2023-06-14T12:29:05;6.45;;;3.60;;
21334;SDS011;69435;52.670;13.544;2023-06-14T12:31:32;3.30;;;3.00;;
21334;SDS011;69435;52.670;13.544;2023-06-14T12:34:01;4.32;;;3.35;;
21334;SDS011;69435;52.670;13.544;2023-06-14T12:36:26;8.73;;;3.78;;
21334;SDS011;69435;52.670;13.544;2023-06-14T12:38:52;5.78;;;3.83;;
21334;SDS011;69435;52.670;13.544;2023-06-14T12:41:19;7.10;;;3.55;;
21334;SDS011;69435;52.670;13.544;2023-06-14T12:43:47;7.68;;;2.95;;
21334;SDS011;69435;52.670;13.544;2023-06-14T12:46:13;3.35;;;3.05;;
21334;SDS011;69435;52.670;13.544;2023-06-14T12:48:51;6.05;;;3.03;;
21334;SDS011;69435;52.670;13.544;2023-06-14T12:51:17;3.03;;;2.67;;
21334;SDS011;69435;52.670;13.544;2023-06-14T12:53:42;6.45;;;3.17;;
21334;SDS011;69435;52.670;13.544;2023-06-14T12:56:09;4.10;;;3.00;;
21334;SDS011;69435;52.670;13.544;2023-06-14T12:58:53;5.60;;;3.03;;
21334;SDS011;69435;52.670;13.544;2023-06-14T13:01:19;4.55;;;2.70;;
21334;SDS011;69435;52.670;13.544;2023-06-14T13:03:48;5.80;;;3.10;;
21334;SDS011;69435;52.670;13.544;2023-06-14T13:06:15;4.50;;;2.97;;
21334;SDS011;69435;52.670;13.544;2023-06-14T13:08:41;4.38;;;2.83;;
21334;SDS011;69435;52.670;13.544;2023-06-14T13:11:09;5.85;;;2.80;;
21334;SDS011;69435;52.670;13.544;2023-06-14T13:13:35;5.20;;;3.20;;
21334;SDS011;69435;52.670;13.544;2023-06-14T13:16:00;3.13;;;2.83;;
21334;SDS011;69435;52.670;13.544;2023-06-14T13:18:29;6.18;;;2.78;;
21334;SDS011;69435;52.670;13.544;2023-06-14T13:20:57;4.88;;;2.70;;
21334;SDS011;69435;52.670;13.544;2023-06-14T13:23:42;4.90;;;2.72;;
21334;SDS011;69435;52.670;13.544;2023-06-14T13:26:07;9.13;;;2.90;;
21334;SDS011;69435;52.670;13.544;2023-06-14T13:28:39;11.20;;;3.08;;
21334;SDS011;69435;52.670;13.544;2023-06-14T13:31:07;6.15;;;3.00;;
21334;SDS011;69435;52.670;13.544;2023-06-14T13:33:39;2.95;;;2.65;;
21334;SDS011;69435;52.670;13.544;2023-06-14T13:36:12;3.05;;;2.80;;
21334;SDS011;69435;52.670;13.544;2023-06-14T13:38:38;3.10;;;2.88;;
21334;SDS011;69435;52.670;13.544;2023-06-14T13:41:04;3.92;;;3.28;;
21334;SDS011;69435;52.670;13.544;2023-06-14T13:43:30;7.85;;;3.95;;
21334;SDS011;69435;52.670;13.544;2023-06-14T13:46:01;8.55;;;3.50;;
21334;SDS011;69435;52.670;13.544;2023-06-14T13:48:27;7.43;;;3.72;;
21334;SDS011;69435;52.670;13.544;2023-06-14T13:50:53;6.80;;;3.53;;
21334;SDS011;69435;52.670;13.544;2023-06-14T13:53:18;8.40;;;3.45;;
21334;SDS011;69435;52.670;13.544;2023-06-14T13:56:02;4.28;;;3.53;;
21334;SDS011;69435;52.670;13.544;2023-06-14T13:58:37;7.30;;;3.65;;
21334;SDS011;69435;52.670;13.544;2023-06-14T14:01:03;4.30;;;3.38;;
21334;SDS011;69435;52.670;13.544;2023-06-14T14:03:30;4.57;;;3.58;;
21334;SDS011;69435;52.670;13.544;2023-06-14T14:06:00;3.30;;;3.05;;
21334;SDS011;69435;52.670;13.544;2023-06-14T14:08:29;5.07;;;3.22;;
21334;SDS011;69435;52.670;13.544;2023-06-14T14:10:55;6.68;;;3.45;;
21334;SDS011;69435;52.670;13.544;2023-06-14T14:13:21;5.15;;;3.22;;
21334;SDS011;69435;52.670;13.544;2023-06-14T14:16:02;4.65;;;2.90;;
21334;SDS011;69435;52.670;13.544;2023-06-14T14:18:29;7.28;;;3.00;;
21334;SDS011;69435;52.670;13.544;2023-06-14T14:20:55;7.15;;;3.13;;
21334;SDS011;69435;52.670;13.544;2023-06-14T14:23:40;4.75;;;3.17;;
21334;SDS011;69435;52.670;13.544;2023-06-14T14:26:06;10.25;;;3.15;;
21334;SDS011;69435;52.670;13.544;2023-06-14T14:28:32;6.00;;;3.10;;
21334;SDS011;69435;52.670;13.544;2023-06-14T14:30:58;3.83;;;3.25;;
21334;SDS011;69435;52.670;13.544;2023-06-14T14:33:36;3.63;;;3.33;;
21334;SDS011;69435;52.670;13.544;2023-06-14T14:36:02;4.80;;;3.20;;
21334;SDS011;69435;52.670;13.544;2023-06-14T14:38:29;6.13;;;3.08;;
21334;SDS011;69435;52.670;13.544;2023-06-14T14:40:58;5.97;;;2.85;;
21334;SDS011;69435;52.670;13.544;2023-06-14T14:43:23;2.90;;;2.50;;
21334;SDS011;69435;52.670;13.544;2023-06-14T14:46:08;6.07;;;3.47;;
21334;SDS011;69435;52.670;13.544;2023-06-14T14:48:34;3.55;;;2.90;;
21334;SDS011;69435;52.670;13.544;2023-06-14T14:51:00;6.28;;;3.45;;
21334;SDS011;69435;52.670;13.544;2023-06-14T14:53:32;5.78;;;2.97;;
21334;SDS011;69435;52.670;13.544;2023-06-14T14:56:16;3.70;;;2.85;;
21334;SDS011;69435;52.670;13.544;2023-06-14T14:58:42;6.28;;;3.00;;
21334;SDS011;69435;52.670;13.544;2023-06-14T15:01:08;6.35;;;3.35;;
21334;SDS011;69435;52.670;13.544;2023-06-14T15:03:33;5.80;;;3.20;;